createdAt,value
2022-12-24T00:01:04.223Z,17.30
2022-12-24T00:03:31.003Z,19.02
2022-12-24T00:05:57.990Z,17.58
2022-12-24T00:08:25.118Z,18.70
2022-12-24T00:10:52.959Z,17.52
2022-12-24T00:13:20.505Z,18.02
2022-12-24T00:15:47.354Z,17.23
2022-12-24T00:18:14.028Z,18.30
2022-12-24T00:20:40.939Z,18.85
2022-12-24T00:23:07.868Z,17.45
2022-12-24T00:25:34.632Z,18.33
2022-12-24T00:28:01.406Z,18.88
2022-12-24T00:30:28.131Z,17.17
2022-12-24T00:32:54.886Z,18.27
2022-12-24T00:35:21.586Z,16.98
2022-12-24T00:37:49.116Z,16.80
2022-12-24T00:40:17.464Z,18.70
2022-12-24T00:42:44.471Z,18.77
2022-12-24T00:45:12.525Z,17.80
2022-12-24T00:47:39.243Z,16.98
2022-12-24T00:50:06.972Z,16.27
2022-12-24T00:52:33.638Z,15.65
2022-12-24T00:55:00.383Z,16.98
2022-12-24T00:57:27.102Z,14.57
2022-12-24T00:59:53.979Z,15.60
2022-12-24T01:02:20.795Z,15.38
2022-12-24T01:04:47.680Z,16.50
2022-12-24T01:07:14.342Z,15.73
2022-12-24T01:09:41.031Z,16.88
2022-12-24T01:12:07.798Z,17.55
2022-12-24T01:14:34.518Z,17.80
2022-12-24T01:17:01.167Z,16.83
2022-12-24T01:19:27.972Z,17.15
2022-12-24T01:21:58.747Z,15.50
2022-12-24T01:24:25.519Z,16.40
2022-12-24T01:26:52.199Z,17.92
2022-12-24T01:29:19.330Z,17.02
2022-12-24T01:31:46.060Z,18.23
2022-12-24T01:34:12.825Z,19.13
2022-12-24T01:36:39.598Z,18.27
2022-12-24T01:39:06.331Z,18.02
2022-12-24T01:41:33.684Z,19.00
2022-12-24T01:44:33.419Z,16.98
2022-12-24T01:47:18.133Z,17.15
2022-12-24T01:49:52.619Z,15.55
2022-12-24T01:52:22.733Z,16.55
2022-12-24T01:55:03.360Z,17.42
2022-12-24T01:57:46.218Z,17.67
2022-12-24T02:00:15.538Z,17.60
2022-12-24T02:02:46.285Z,17.08
2022-12-24T02:05:26.325Z,16.10
2022-12-24T02:07:53.099Z,16.20
2022-12-24T02:10:20.000Z,18.52
2022-12-24T02:12:47.577Z,17.30
2022-12-24T02:15:20.662Z,16.40
2022-12-24T02:17:56.498Z,16.38
2022-12-24T02:20:41.232Z,16.95
2022-12-24T02:23:26.677Z,18.20
2022-12-24T02:26:27.090Z,17.95
2022-12-24T02:29:00.094Z,18.40
2022-12-24T02:31:36.370Z,18.23
2022-12-24T02:34:10.248Z,20.23
2022-12-24T02:36:43.909Z,19.58
2022-12-24T02:39:26.455Z,22.25
2022-12-24T02:41:55.663Z,19.00
2022-12-24T02:44:25.422Z,19.63
2022-12-24T02:46:52.921Z,19.92
2022-12-24T02:49:19.833Z,18.52
2022-12-24T02:51:46.524Z,19.40
2022-12-24T02:54:15.079Z,20.25
2022-12-24T02:57:08.357Z,20.25
2022-12-24T03:00:07.694Z,19.08
2022-12-24T03:02:46.617Z,19.40
2022-12-24T03:05:32.033Z,18.80
2022-12-24T03:08:22.774Z,20.33
2022-12-24T03:10:57.545Z,18.98
2022-12-24T03:13:25.269Z,18.83
2022-12-24T03:15:52.189Z,20.38
2022-12-24T03:18:22.769Z,21.02
2022-12-24T03:20:56.544Z,21.85
2022-12-24T03:23:23.501Z,19.52
2022-12-24T03:25:50.586Z,20.15
2022-12-24T03:28:19.930Z,19.83
2022-12-24T03:30:48.261Z,21.20
2022-12-24T03:33:16.287Z,20.50
2022-12-24T03:35:43.116Z,20.55
2022-12-24T03:38:09.864Z,21.33
2022-12-24T03:40:36.751Z,22.13
2022-12-24T03:43:03.595Z,22.40
2022-12-24T03:45:33.075Z,23.60
2022-12-24T03:47:59.922Z,21.52
2022-12-24T03:50:26.579Z,23.02
2022-12-24T03:52:55.001Z,22.75
2022-12-24T03:55:22.318Z,22.73
2022-12-24T03:57:49.221Z,23.05
2022-12-24T04:00:16.580Z,22.02
2022-12-24T04:02:43.441Z,22.17
2022-12-24T04:05:15.360Z,21.92
2022-12-24T04:07:42.688Z,22.67
2022-12-24T04:10:10.103Z,22.05
2022-12-24T04:12:37.314Z,20.65
2022-12-24T04:15:04.747Z,19.05
2022-12-24T04:17:31.803Z,19.52
2022-12-24T04:19:58.469Z,19.27
2022-12-24T04:22:25.167Z,18.90
2022-12-24T04:24:51.867Z,18.15
2022-12-24T04:27:18.647Z,19.05
2022-12-24T04:29:45.318Z,19.60
2022-12-24T04:32:12.052Z,18.83
2022-12-24T04:34:38.764Z,19.15
2022-12-24T04:37:05.651Z,19.40
2022-12-24T04:39:32.365Z,18.95
2022-12-24T04:41:59.030Z,19.80
2022-12-24T04:44:25.861Z,19.40
2022-12-24T04:46:52.561Z,18.00
2022-12-24T04:49:19.206Z,19.83
2022-12-24T04:51:45.890Z,19.52
2022-12-24T04:54:12.558Z,18.88
2022-12-24T04:56:39.210Z,19.98
2022-12-24T04:59:05.923Z,20.65
2022-12-24T05:01:33.360Z,19.48
2022-12-24T05:04:00.353Z,20.88
2022-12-24T05:06:31.449Z,19.55
2022-12-24T05:08:59.183Z,19.15
2022-12-24T05:11:26.415Z,19.80
2022-12-24T05:13:53.328Z,19.52
2022-12-24T05:16:21.463Z,18.25
2022-12-24T05:18:48.278Z,20.48
2022-12-24T05:21:17.721Z,20.48
2022-12-24T05:23:44.541Z,18.80
2022-12-24T05:26:27.158Z,19.67
2022-12-24T05:28:56.241Z,19.63
2022-12-24T05:31:25.182Z,22.17
2022-12-24T05:33:51.930Z,20.30
2022-12-24T05:36:18.614Z,20.48
2022-12-24T05:38:45.283Z,20.17
2022-12-24T05:41:12.089Z,20.67
2022-12-24T05:43:39.080Z,20.33
2022-12-24T05:46:09.056Z,20.17
2022-12-24T05:48:36.015Z,20.40
2022-12-24T05:51:07.553Z,20.95
2022-12-24T05:53:34.850Z,20.35
2022-12-24T05:56:10.611Z,20.52
2022-12-24T06:01:05.601Z,20.38
2022-12-24T06:03:33.895Z,24.98
2022-12-24T06:06:05.322Z,22.48
2022-12-24T06:08:33.064Z,21.77
2022-12-24T06:11:01.644Z,21.73
2022-12-24T06:13:29.088Z,21.88
2022-12-24T06:16:00.508Z,21.95
2022-12-24T06:18:29.045Z,21.73
2022-12-24T06:20:57.260Z,22.65
2022-12-24T06:23:24.223Z,24.15
2022-12-24T06:25:51.644Z,24.30
2022-12-24T06:28:18.561Z,23.17
2022-12-24T06:30:50.266Z,23.13
2022-12-24T06:33:17.528Z,22.05
2022-12-24T06:35:47.565Z,24.50
2022-12-24T06:38:15.378Z,24.92
2022-12-24T06:40:44.163Z,23.70
2022-12-24T06:43:11.776Z,26.25
2022-12-24T06:45:38.806Z,26.20
2022-12-24T06:48:06.075Z,27.40
2022-12-24T06:50:35.799Z,28.73
2022-12-24T06:53:02.496Z,28.00
2022-12-24T06:55:29.221Z,23.95
2022-12-24T06:57:56.093Z,24.95
2022-12-24T07:00:22.820Z,24.77
2022-12-24T07:02:49.875Z,24.50
2022-12-24T07:05:16.708Z,23.80
2022-12-24T07:07:45.200Z,25.63
2022-12-24T07:10:14.771Z,25.15
2022-12-24T07:12:41.778Z,24.65
2022-12-24T07:15:09.438Z,23.23
2022-12-24T07:17:36.426Z,23.38
2022-12-24T07:20:04.220Z,24.05
2022-12-24T07:22:30.963Z,26.00
2022-12-24T07:24:57.665Z,24.05
2022-12-24T07:27:24.354Z,25.63
2022-12-24T07:29:51.060Z,26.65
2022-12-24T07:32:17.796Z,25.55
2022-12-24T07:34:44.456Z,23.77
2022-12-24T07:37:11.120Z,25.40
2022-12-24T07:39:37.862Z,25.33
2022-12-24T07:42:04.885Z,26.77
2022-12-24T07:44:31.624Z,25.33
2022-12-24T07:46:58.412Z,23.33
2022-12-24T07:49:25.198Z,23.33
2022-12-24T07:51:51.983Z,24.42
2022-12-24T07:54:18.722Z,25.55
2022-12-24T07:56:45.370Z,26.77
2022-12-24T07:59:15.264Z,25.25
2022-12-24T08:01:43.357Z,22.95
2022-12-24T08:04:10.196Z,26.20
2022-12-24T08:06:37.212Z,25.65
2022-12-24T08:09:04.244Z,24.98
2022-12-24T08:11:31.011Z,24.58
2022-12-24T08:13:57.703Z,24.17
2022-12-24T08:16:24.540Z,22.83
2022-12-24T08:18:51.309Z,24.67
2022-12-24T08:21:18.141Z,24.00
2022-12-24T08:23:46.789Z,23.02
2022-12-24T08:26:13.747Z,24.30
2022-12-24T08:28:40.704Z,24.20
2022-12-24T08:31:07.731Z,23.83
2022-12-24T08:33:34.573Z,23.02
2022-12-24T08:36:02.312Z,23.17
2022-12-24T08:38:29.275Z,24.23
2022-12-24T08:40:56.938Z,24.23
2022-12-24T08:43:24.582Z,24.33
2022-12-24T08:45:51.389Z,25.40
2022-12-24T08:48:18.168Z,25.27
2022-12-24T08:50:45.142Z,24.40
2022-12-24T08:53:12.549Z,24.00
2022-12-24T08:55:39.283Z,24.70
2022-12-24T08:58:06.078Z,26.00
2022-12-24T09:00:32.991Z,24.92
2022-12-24T09:02:59.864Z,24.27
2022-12-24T09:05:27.164Z,24.35
2022-12-24T09:07:54.322Z,21.88
2022-12-24T09:10:21.223Z,22.80
2022-12-24T09:12:47.873Z,23.23
2022-12-24T09:15:14.644Z,26.02
2022-12-24T09:17:41.524Z,24.42
2022-12-24T09:20:09.013Z,24.45
2022-12-24T09:22:37.390Z,25.25
2022-12-24T09:25:04.611Z,26.20
2022-12-24T09:27:31.837Z,23.98
2022-12-24T09:29:58.580Z,23.25
2022-12-24T09:32:25.300Z,22.92
2022-12-24T09:34:51.958Z,21.38
2022-12-24T09:37:18.667Z,23.38
2022-12-24T09:39:45.456Z,22.73
2022-12-24T09:42:18.149Z,22.20
2022-12-24T09:45:05.092Z,21.83
2022-12-24T09:47:48.111Z,21.88
2022-12-24T09:50:31.321Z,22.20
2022-12-24T09:53:00.505Z,26.52
2022-12-24T09:55:31.296Z,26.35
2022-12-24T09:58:00.759Z,23.65
2022-12-24T10:00:30.901Z,26.90
2022-12-24T10:02:57.795Z,24.83
2022-12-24T10:05:41.028Z,26.00
2022-12-24T10:08:30.950Z,25.73
2022-12-24T10:11:16.881Z,28.17
2022-12-24T10:14:00.697Z,25.08
2022-12-24T10:16:39.023Z,28.25
2022-12-24T10:19:13.761Z,30.63
2022-12-24T10:22:04.484Z,28.15
2022-12-24T10:25:12.493Z,29.20
2022-12-24T10:27:39.841Z,29.95
2022-12-24T10:30:33.646Z,29.38
2022-12-24T10:33:00.742Z,29.95
2022-12-24T10:35:34.679Z,28.00
2022-12-24T10:38:02.850Z,28.05
2022-12-24T10:40:39.959Z,26.98
2022-12-24T10:43:19.167Z,29.48
2022-12-24T10:46:14.951Z,29.08
2022-12-24T10:48:55.397Z,31.33
2022-12-24T10:51:36.324Z,30.60
2022-12-24T10:54:07.655Z,28.95
2022-12-24T10:56:44.083Z,29.60
2022-12-24T10:59:26.646Z,29.35
2022-12-24T11:01:55.013Z,26.30
2022-12-24T11:04:25.306Z,25.42
2022-12-24T11:06:57.439Z,28.13
2022-12-24T11:09:28.498Z,25.63
2022-12-24T11:11:56.851Z,24.02
2022-12-24T11:14:25.059Z,23.17
2022-12-24T11:16:55.027Z,23.40
2022-12-24T11:19:32.656Z,23.98
2022-12-24T11:22:10.718Z,23.10
2022-12-24T11:24:49.878Z,23.40
2022-12-24T11:27:28.405Z,21.85
2022-12-24T11:30:15.424Z,21.63
2022-12-24T11:32:44.241Z,20.67
2022-12-24T11:35:23.013Z,22.00
2022-12-24T11:38:02.160Z,21.63
2022-12-24T11:40:41.937Z,24.55
2022-12-24T11:43:21.813Z,21.60
2022-12-24T11:45:52.061Z,21.95
2022-12-24T11:48:24.912Z,21.60
2022-12-24T11:51:06.539Z,23.08
2022-12-24T11:54:14.741Z,20.25
2022-12-24T11:56:45.869Z,21.48
2022-12-24T11:59:24.452Z,20.35
2022-12-24T12:02:00.156Z,19.77
2022-12-24T12:04:33.272Z,21.23
2022-12-24T12:07:14.355Z,22.23
2022-12-24T12:09:45.258Z,20.30
2022-12-24T12:12:21.417Z,18.98
2022-12-24T12:15:12.560Z,19.33
2022-12-24T12:18:05.767Z,20.23
2022-12-24T12:20:35.072Z,18.08
2022-12-24T12:23:17.709Z,17.20
2022-12-24T12:26:18.083Z,14.15
2022-12-24T12:29:08.431Z,15.25
2022-12-24T12:31:47.359Z,15.73
2022-12-24T12:34:52.879Z,14.02
2022-12-24T12:37:37.421Z,12.98
2022-12-24T12:40:11.980Z,13.30
2022-12-24T12:42:40.493Z,14.18
2022-12-24T12:45:21.377Z,12.85
2022-12-24T12:48:06.697Z,13.05
2022-12-24T12:50:34.956Z,12.23
2022-12-24T12:53:24.169Z,12.52
2022-12-24T12:55:53.686Z,11.20
2022-12-24T12:58:37.624Z,12.55
2022-12-24T13:01:14.642Z,12.48
2022-12-24T13:04:13.312Z,11.13
2022-12-24T13:07:05.260Z,11.88
2022-12-24T13:09:46.629Z,11.63
2022-12-24T13:12:56.020Z,11.10
2022-12-24T13:15:47.234Z,10.60
2022-12-24T13:18:21.992Z,10.10
2022-12-24T13:20:50.472Z,10.07
2022-12-24T13:23:22.557Z,11.18
2022-12-24T13:25:57.723Z,10.13
2022-12-24T13:28:24.665Z,9.60
2022-12-24T13:31:19.686Z,9.82
2022-12-24T13:33:50.158Z,9.95
2022-12-24T13:36:18.773Z,10.82
2022-12-24T13:38:48.660Z,10.77
2022-12-24T13:41:38.740Z,10.45
2022-12-24T13:44:12.482Z,11.00
2022-12-24T13:47:15.865Z,11.52
2022-12-24T13:49:44.958Z,11.27
2022-12-24T13:52:11.724Z,10.23
2022-12-24T13:54:57.211Z,9.98
2022-12-24T13:57:27.193Z,10.27
2022-12-24T14:00:12.677Z,10.20
2022-12-24T14:02:48.850Z,10.17
2022-12-24T14:05:28.003Z,9.48
2022-12-24T14:07:56.124Z,9.02
2022-12-24T14:10:26.682Z,8.38
2022-12-24T14:12:54.341Z,8.98
2022-12-24T14:15:49.173Z,8.60
2022-12-24T14:18:21.270Z,9.30
2022-12-24T14:20:54.910Z,8.27
2022-12-24T14:23:28.821Z,9.85
2022-12-24T14:25:57.285Z,8.35
2022-12-24T14:28:33.570Z,8.57
2022-12-24T14:31:12.608Z,8.70
2022-12-24T14:33:39.403Z,8.05
2022-12-24T14:36:07.311Z,8.70
2022-12-24T14:38:34.500Z,8.88
2022-12-24T14:41:18.818Z,8.57
2022-12-24T14:44:07.148Z,8.60
2022-12-24T14:47:12.364Z,9.32
2022-12-24T14:49:39.036Z,9.60
2022-12-24T14:55:44.283Z,10.02
2022-12-24T14:58:18.919Z,9.52
2022-12-24T15:00:45.767Z,10.40
2022-12-24T15:03:17.550Z,10.43
2022-12-24T15:05:45.190Z,9.80
2022-12-24T15:08:24.424Z,10.77
2022-12-24T15:10:54.419Z,10.98
2022-12-24T15:13:21.055Z,10.60
2022-12-24T15:15:53.478Z,10.38
2022-12-24T15:18:25.731Z,9.88
2022-12-24T15:20:58.651Z,9.50
2022-12-24T15:23:36.857Z,10.60
2022-12-24T15:26:09.356Z,11.52
2022-12-24T15:28:38.269Z,10.60
2022-12-24T15:31:11.008Z,10.57
2022-12-24T15:33:38.565Z,11.35
2022-12-24T15:36:07.288Z,10.63
2022-12-24T15:38:39.583Z,11.32
2022-12-24T15:41:28.714Z,11.65
2022-12-24T15:44:01.347Z,9.45
2022-12-24T15:46:29.833Z,11.93
2022-12-24T15:48:59.548Z,10.80
2022-12-24T15:51:33.463Z,9.73
2022-12-24T15:54:15.507Z,9.95
2022-12-24T15:56:44.524Z,10.90
2022-12-24T15:59:35.213Z,11.77
2022-12-24T16:02:31.606Z,11.05
2022-12-24T16:08:00.112Z,10.93
2022-12-24T16:10:26.972Z,12.48
2022-12-24T16:12:53.861Z,11.95
2022-12-24T16:15:20.635Z,13.32
2022-12-24T16:17:50.448Z,13.73
2022-12-24T16:20:22.166Z,11.98
2022-12-24T16:22:50.257Z,12.13
2022-12-24T16:25:28.269Z,11.80
2022-12-24T16:27:58.512Z,12.65
2022-12-24T16:30:27.346Z,12.70
2022-12-24T16:32:54.090Z,13.02
2022-12-24T16:35:26.258Z,13.52
2022-12-24T16:37:54.182Z,14.75
2022-12-24T16:40:26.824Z,14.57
2022-12-24T16:42:56.374Z,14.13
2022-12-24T16:45:23.104Z,14.50
2022-12-24T16:47:49.804Z,15.13
2022-12-24T16:50:16.901Z,14.75
2022-12-24T16:52:43.876Z,16.52
2022-12-24T16:55:14.389Z,15.43
2022-12-24T16:57:42.764Z,16.25
2022-12-24T17:00:22.200Z,16.02
2022-12-24T17:02:49.843Z,16.58
2022-12-24T17:05:16.997Z,18.13
2022-12-24T17:07:44.499Z,17.77
2022-12-24T17:10:14.510Z,20.38
2022-12-24T17:12:41.914Z,20.42
2022-12-24T17:15:09.115Z,20.33
2022-12-24T17:17:36.131Z,20.48
2022-12-24T17:20:03.395Z,20.75
2022-12-24T17:22:33.379Z,22.50
2022-12-24T17:25:00.109Z,22.05
2022-12-24T17:27:26.969Z,23.02
2022-12-24T17:29:54.157Z,23.45
2022-12-24T17:32:20.994Z,25.38
2022-12-24T17:34:47.695Z,23.40
2022-12-24T17:37:14.509Z,24.10
2022-12-24T17:39:41.291Z,23.30
2022-12-24T17:42:08.289Z,24.42
2022-12-24T17:44:35.299Z,24.92
2022-12-24T17:47:02.271Z,24.67
2022-12-24T17:49:29.067Z,25.02
2022-12-24T17:51:55.778Z,27.33
2022-12-24T17:54:22.622Z,25.85
2022-12-24T17:56:49.373Z,25.60
2022-12-24T17:59:16.199Z,25.63
2022-12-24T18:01:42.997Z,25.75
2022-12-24T18:04:11.217Z,24.83
2022-12-24T18:06:44.315Z,21.80
2022-12-24T18:09:14.012Z,22.83
2022-12-24T18:11:40.791Z,23.02
2022-12-24T18:14:07.858Z,22.85
2022-12-24T18:16:37.484Z,22.60
2022-12-24T18:19:06.049Z,22.52
2022-12-24T18:21:33.400Z,22.65
2022-12-24T18:24:00.699Z,23.40
2022-12-24T18:26:29.311Z,21.75
2022-12-24T18:28:58.181Z,22.58
2022-12-24T18:31:25.315Z,22.13
2022-12-24T18:33:54.188Z,22.80
2022-12-24T18:36:21.369Z,21.63
2022-12-24T18:38:48.389Z,20.45
2022-12-24T18:41:18.736Z,23.15
2022-12-24T18:43:45.973Z,20.75
2022-12-24T18:46:18.097Z,19.15
2022-12-24T18:48:45.439Z,20.83
2022-12-24T18:51:12.286Z,21.83
2022-12-24T18:53:39.493Z,21.80
2022-12-24T18:56:12.213Z,21.17
2022-12-24T18:58:39.088Z,20.73
2022-12-24T19:01:11.831Z,19.13
2022-12-24T19:03:39.000Z,19.80
2022-12-24T19:06:06.189Z,19.38
2022-12-24T19:11:19.879Z,19.95
2022-12-24T19:13:50.387Z,17.33
2022-12-24T19:16:18.016Z,17.73
2022-12-24T19:18:44.886Z,16.95
2022-12-24T19:21:13.379Z,17.88
2022-12-24T19:23:40.098Z,17.10
2022-12-24T19:26:07.209Z,16.38
2022-12-24T19:28:33.939Z,16.17
2022-12-24T19:31:05.941Z,16.58
2022-12-24T19:33:44.235Z,15.85
2022-12-24T19:36:13.832Z,15.77
2022-12-24T19:38:40.866Z,15.35
2022-12-24T19:41:09.452Z,15.85
2022-12-24T19:43:41.331Z,16.23
2022-12-24T19:46:13.613Z,18.30
2022-12-24T19:48:41.469Z,17.25
2022-12-24T19:51:10.560Z,17.50
2022-12-24T19:53:38.900Z,17.52
2022-12-24T19:56:06.272Z,17.65
2022-12-24T19:58:32.962Z,18.05
2022-12-24T20:01:12.933Z,18.55
2022-12-24T20:03:42.653Z,19.00
2022-12-24T20:06:09.591Z,19.05
2022-12-24T20:08:37.934Z,18.65
2022-12-24T20:11:11.269Z,20.42
2022-12-24T20:13:39.822Z,19.55
2022-12-24T20:16:15.918Z,20.50
2022-12-24T20:18:43.237Z,20.95
2022-12-24T20:21:11.992Z,20.25
2022-12-24T20:23:40.300Z,18.80
2022-12-24T20:26:10.736Z,18.25
2022-12-24T20:28:37.490Z,19.67
2022-12-24T20:31:16.153Z,18.33
2022-12-24T20:33:43.902Z,17.50
2022-12-24T20:36:12.204Z,17.40
2022-12-24T20:38:41.268Z,17.58
2022-12-24T20:41:08.018Z,16.10
2022-12-24T20:43:38.419Z,15.40
2022-12-24T20:46:06.234Z,14.05
2022-12-24T20:48:33.254Z,13.90
2022-12-24T20:51:00.152Z,15.23
2022-12-24T20:53:27.859Z,14.57
2022-12-24T20:55:54.568Z,14.60
2022-12-24T20:58:21.436Z,13.85
2022-12-24T21:00:49.129Z,14.75
2022-12-24T21:03:17.884Z,14.88
2022-12-24T21:05:45.394Z,14.13
2022-12-24T21:08:13.900Z,14.68
2022-12-24T21:10:41.164Z,14.40
2022-12-24T21:13:08.626Z,16.23
2022-12-24T21:15:37.893Z,16.20
2022-12-24T21:18:04.689Z,15.60
2022-12-24T21:20:31.364Z,17.67
2022-12-24T21:23:01.310Z,15.68
2022-12-24T21:25:28.606Z,15.85
2022-12-24T21:27:55.529Z,14.95
2022-12-24T21:30:23.194Z,14.32
2022-12-24T21:32:50.586Z,13.55
2022-12-24T21:35:17.640Z,14.82
2022-12-24T21:37:44.367Z,13.55
2022-12-24T21:40:11.723Z,13.68
2022-12-24T21:42:38.391Z,13.70
2022-12-24T21:45:05.882Z,13.05
2022-12-24T21:47:33.732Z,12.85
2022-12-24T21:50:00.419Z,12.40
2022-12-24T21:52:27.136Z,13.80
2022-12-24T21:54:53.963Z,13.07
2022-12-24T21:57:20.636Z,11.98
2022-12-24T21:59:50.547Z,12.80
2022-12-24T22:02:18.004Z,13.13
2022-12-24T22:04:44.993Z,12.63
2022-12-24T22:07:31.936Z,12.63
2022-12-24T22:09:58.599Z,12.73
2022-12-24T22:12:29.042Z,12.90
2022-12-24T22:14:55.741Z,13.05
2022-12-24T22:17:25.457Z,12.13
2022-12-24T22:19:53.824Z,12.32
2022-12-24T22:22:21.151Z,13.88
2022-12-24T22:24:47.859Z,13.05
2022-12-24T22:27:14.559Z,13.75
2022-12-24T22:29:41.339Z,13.55
2022-12-24T22:32:08.174Z,13.40
2022-12-24T22:34:36.145Z,12.90
2022-12-24T22:37:03.276Z,14.00
2022-12-24T22:39:29.951Z,14.00
2022-12-24T22:41:56.620Z,14.70
2022-12-24T22:44:23.550Z,14.38
2022-12-24T22:46:50.303Z,14.77
2022-12-24T22:49:17.169Z,15.73
2022-12-24T22:51:44.153Z,15.07
2022-12-24T22:54:13.933Z,14.13
2022-12-24T22:56:45.960Z,16.17
2022-12-24T22:59:15.486Z,14.43
2022-12-24T23:01:44.842Z,14.65
2022-12-24T23:04:13.415Z,14.45
2022-12-24T23:06:40.945Z,13.38
2022-12-24T23:09:15.679Z,14.63
2022-12-24T23:11:43.596Z,14.00
2022-12-24T23:14:22.940Z,15.20
2022-12-24T23:16:49.820Z,13.32
2022-12-24T23:19:16.531Z,13.40
2022-12-24T23:21:43.230Z,14.82
2022-12-24T23:24:10.910Z,14.18
2022-12-24T23:26:37.650Z,13.68
2022-12-24T23:29:04.707Z,14.18
2022-12-24T23:31:31.536Z,14.77
2022-12-24T23:33:58.224Z,15.95
2022-12-24T23:36:24.885Z,15.98
2022-12-24T23:38:53.449Z,15.77
2022-12-24T23:41:20.154Z,15.95
2022-12-24T23:43:47.308Z,15.57
2022-12-24T23:46:15.922Z,16.23
2022-12-24T23:48:42.877Z,15.75
2022-12-24T23:51:13.302Z,17.42
2022-12-24T23:53:40.185Z,16.70
2022-12-24T23:56:08.111Z,16.98
2022-12-24T23:58:34.988Z,17.48
